This is the latest recevied weather packets stored in our database for station/object BMCB-38. If no packets are shown the sender has not sent any weather packets the latest 10 day(s).
| Time | Temp. | Humidity | Pressure | Rain* | Wind** | Luminosity | Snow |
|---|---|---|---|---|---|---|---|
| 1777656034 | 22.78° C | 21% | 1021 hPa | 0 mm | - | 174 W/m² | - |
| 1777648835 | 23.33° C | 23% | 1021.4 hPa | 0 mm | - | 498 W/m² | - |
| 1777642236 | 22.22° C | 24% | 1022.3 hPa | 0 mm | - | 722 W/m² | - |
| 1777641037 | 22.22° C | 23% | 1022.5 hPa | 0 mm | - | 748 W/m² | - |
| 1777640438 | 22.22° C | 23% | 1022.6 hPa | 0 mm | - | 758 W/m² | - |
| 1777639836 | 22.22° C | 23% | 1022.6 hPa | 0 mm | - | 768 W/m² | - |
| 1777636234 | 21.11° C | 23% | 1022.9 hPa | 0 mm | - | 796 W/m² | - |
| 1777634437 | 21.11° C | 24% | 1023.3 hPa | 0 mm | - | 788 W/m² | - |
| 1777633840 | 20.56° C | 24% | 1023.5 hPa | 0 mm | - | 784 W/m² | - |
| 1777632637 | 20° C | 23% | 1023.6 hPa | 0 mm | - | 770 W/m² | - |
| 1777629636 | 19.44° C | 26% | 1023.9 hPa | 0 mm | - | 716 W/m² | - |
| 1777626036 | 17.78° C | 27% | 1024.3 hPa | 0 mm | - | 610 W/m² | - |
| 1777623037 | 15.56° C | 34% | 1024.4 hPa | 0 mm | - | 498 W/m² | - |
| 1777618839 | 12.22° C | 42% | 1024.8 hPa | 0 mm | - | 164 W/m² | - |
| 1777618238 | 11.67° C | 42% | 1024.8 hPa | 0 mm | - | 74 W/m² | - |
| 1777615838 | 10.56° C | 45% | 1024.6 hPa | 0 mm | - | 50 W/m² | - |
| 1777612837 | 9.44° C | 43% | 1024.6 hPa | 0 mm | - | 24 W/m² | - |
| 1777610436 | 10° C | 42% | 1024.6 hPa | 0 mm | - | 8 W/m² | - |
| 1777605636 | 10° C | 38% | 1024.4 hPa | 0 mm | - | 0 W/m² | - |
| 1777605032 | 10° C | 39% | 1024.5 hPa | 0 mm | - | 0 W/m² | - |
| 1777601420 | 10° C | 39% | 1024.5 hPa | 0 mm | - | 0 W/m² | - |
| 1777600233 | 10.56° C | 38% | 1024.6 hPa | 0 mm | - | 0 W/m² | - |
| 1777598420 | 10.56° C | 37% | 1024.6 hPa | 0 mm | - | 0 W/m² | - |
| 1777597835 | 11.11° C | 36% | 1024.7 hPa | 0 mm | - | 0 W/m² | - |
| 1777596022 | 11.11° C | 35% | 1024.8 hPa | 0 mm | - | 0 W/m² | - |
* Rain latest hour (hover to see other rain measurements)
** Current wind speed in m/s (hover to see current wind gust speed)